Artvin — 9HA2782 — position and weather

sailwx.info

Track history (hours):
 
Tides and Currents Weather Stations Pressure Air Temp Water Temp Dewpoint Dewpoint Depression Visibility Wind Speed Wind Dir Waves Ship Positions

Artvin

Last reported at 2018-Apr-24 15:01 UTC. Time now 2018-Apr-25 12:48 UTC.
Position N 56°09' E 016°58'.

Length 229 m; draft 7 m.

Type: Cargo ship. MMSI: 215678000.

Date/timePositionNaut miles runAvg speedWind from/ knotsBaromVisibWave heightAir tempDewpointWater temp
2018-Apr-24 15:01N 56°09' E 016°58'010.3
2018-Apr-24 15:00N 56°09' E 016°58'611.1
2018-Apr-24 14:29N 56°05' E 016°49'511.0
2018-Apr-24 14:00N 56°02' E 016°42'611.1
2018-Apr-24 13:31N 55°59' E 016°34'611.0
2018-Apr-24 13:01N 55°56' E 016°26'510.8
2018-Apr-24 12:31N 55°53' E 016°17'510.8
2018-Apr-24 12:00N 55°50' E 016°09'511.0
2018-Apr-24 11:31N 55°47' E 016°00'610.9
2018-Apr-24 11:00N 55°45' E 015°52'510.8
2018-Apr-24 10:30N 55°42' E 015°44'510.7
2018-Apr-24 10:01N 55°39' E 015°36'510.8
2018-Apr-24 09:31N 55°36' E 015°28'510.6
2018-Apr-24 09:01N 55°34' E 015°19'4 8.6
2018-Apr-24 08:30N 55°32' E 015°12'4 7.4
2018-Apr-24 08:00N 55°31' E 015°06'4 7.4
2018-Apr-24 07:30N 55°29' E 015°00'4 7.5
2018-Apr-24 07:00N 55°28' E 014°54'4 8.0
2018-Apr-24 06:30N 55°26' E 014°48'510.9
2018-Apr-24 06:00N 55°23' E 014°39'611.1
2018-Apr-24 05:30N 55°19' E 014°33'510.9
2018-Apr-24 05:00N 55°15' E 014°27'510.8
2018-Apr-24 04:31N 55°11' E 014°21'510.0
2018-Apr-24 04:00N 55°10' E 014°12'2910.8
2018-Apr-24 01:21N 55°12' E 013°21'510.7
2018-Apr-24 00:55N 55°12' E 013°13'510.8
2018-Apr-24 00:30N 55°12' E 013°06'510.6
2018-Apr-24 00:01N 55°14' E 012°57'510.8
2018-Apr-23 23:30N 55°16' E 012°48'510.8
2018-Apr-23 23:00N 55°18' E 012°39'4 9.0
2018-Apr-23 22:31N 55°22' E 012°39'510.8
2018-Apr-23 22:01N 55°27' E 012°41'611.4
2018-Apr-23 21:31N 55°33' E 012°42'611.6
2018-Apr-23 21:01N 55°39' E 012°42'611.2
2018-Apr-23 20:31N 55°44' E 012°42'510.9
2018-Apr-23 20:01N 55°50' E 012°43'510.5
2018-Apr-23 19:31N 55°55' E 012°45'611.5
2018-Apr-23 19:01N 56°00' E 012°40'611.6
2018-Apr-23 18:31N 56°05' E 012°35'611.6
2018-Apr-23 18:01N 56°09' E 012°27'611.1
2018-Apr-23 17:31N 56°12' E 012°18'4710.1
2018-Apr-23 12:51N 56°56' E 011°46'411.3
2018-Apr-23 12:30N 56°59' E 011°43'611.2
2018-Apr-23 12:01N 57°04' E 011°40'510.7
2018-Apr-23 11:31N 57°09' E 011°37'510.5
2018-Apr-23 11:01N 57°14' E 011°33'510.3
2018-Apr-23 10:30N 57°19' E 011°30'510.7
2018-Apr-23 10:01N 57°24' E 011°27'510.5
2018-Apr-23 09:30N 57°29' E 011°21'612.4
2018-Apr-23 09:01N 57°33' E 011°13'714.8
2018-Apr-23 08:31N 57°38' E 011°03'713.8
2018-Apr-23 08:00N 57°43' E 010°54'5 9.8
2018-Apr-23 07:30N 57°46' E 010°47'510.0
2018-Apr-23 07:00N 57°47' E 010°38'611.1
2018-Apr-23 06:30N 57°47' E 010°28'810.9
2018-Apr-23 05:49N 57°47' E 010°13'4010.7
2018-Apr-23 02:04N 57°40' E 008°59'111.4
2018-Apr-23 02:00N 57°39' E 008°58'611.1
2018-Apr-23 01:28N 57°36' E 008°49'510.8
2018-Apr-23 00:58N 57°34' E 008°40'610.8
2018-Apr-23 00:23N 57°30' E 008°30'410.8
2018-Apr-22 23:58N 57°28' E 008°23'510.8
2018-Apr-22 23:30N 57°25' E 008°15'910.7
2018-Apr-22 22:42N 57°21' E 008°02'410.5
2018-Apr-22 22:22N 57°19' E 007°56'410.5
2018-Apr-22 22:00N 57°17' E 007°50'510.7
2018-Apr-22 21:30N 57°14' E 007°42'1011.1
2018-Apr-22 20:37N 57°09' E 007°27'210.7
2018-Apr-22 20:27N 57°08' E 007°24'810.6
2018-Apr-22 19:44N 57°04' E 007°12'11210.3
2018-Apr-22 08:51N 55°21' E 005°50'411.1
2018-Apr-22 08:30N 55°18' E 005°48'1911.0
2018-Apr-22 06:47N 54°59' E 005°43'311.1
2018-Apr-22 06:30N 54°56' E 005°43'4010.4
2018-Apr-22 02:38N 54°16' E 005°44'210.4
2018-Apr-22 02:24N 54°14' E 005°47'31 9.4
2018-Apr-21 23:06N 54°11' E 006°40'110.0
2018-Apr-21 22:57N 54°11' E 006°42'4510.6
2018-Apr-21 18:41N 54°03' E 007°58'513.9
2018-Apr-21 18:20N 54°01' E 008°06'513.6
2018-Apr-21 17:58N 54°00' E 008°14'715.4
2018-Apr-21 17:30N 53°59' E 008°26'714.2
2018-Apr-21 17:00N 53°57' E 008°37'611.9
2018-Apr-21 16:29N 53°52' E 008°44'510.2
2018-Apr-21 16:00N 53°50' E 008°51'510.2
2018-Apr-21 15:30N 53°51' E 008°60'5 9.7
2018-Apr-21 15:00N 53°53' E 009°08'3 6.4
2018-Apr-21 14:30N 53°53' E 009°13'4 8.6
2018-Apr-21 14:00N 53°51' E 009°19'5 9.9
2018-Apr-21 13:30N 53°47' E 009°24'611.6
2018-Apr-21 13:00N 53°42' E 009°30'3 5.5
2018-Apr-21 12:30N 53°39' E 009°31'0 0.1
2018-Apr-21 12:01N 53°39' E 009°31'0 0.0
2018-Apr-21 11:30N 53°39' E 009°31'0 0.0
2018-Apr-21 11:00N 53°39' E 009°31'0 0.0
2018-Apr-21 10:30N 53°39' E 009°31'0 0.0
2018-Apr-21 10:00N 53°39' E 009°31'0 0.0
2018-Apr-21 09:30N 53°39' E 009°31'0 0.0
2018-Apr-21 09:00N 53°39' E 009°31'0 0.0
2018-Apr-21 08:30N 53°39' E 009°31'0 0.0
2018-Apr-21 08:00N 53°39' E 009°31'0 0.0
2018-Apr-21 07:30N 53°39' E 009°31'0 0.0
2018-Apr-21 07:00N 53°39' E 009°31'0 0.0
2018-Apr-21 06:30N 53°39' E 009°31'0 0.0
2018-Apr-21 06:00N 53°39' E 009°31'0 0.0
2018-Apr-21 05:30N 53°39' E 009°31'0 0.0
2018-Apr-21 05:00N 53°39' E 009°31'0 0.0
2018-Apr-21 04:30N 53°39' E 009°31'0 0.0
2018-Apr-21 04:00N 53°39' E 009°31'0 0.0
2018-Apr-21 03:30N 53°39' E 009°31'0 0.0
2018-Apr-21 03:00N 53°39' E 009°31'0 0.0
2018-Apr-21 02:30N 53°39' E 009°31'0 0.0
2018-Apr-21 02:00N 53°39' E 009°31'0 0.0
2018-Apr-21 01:30N 53°39' E 009°31'0 0.0
2018-Apr-21 01:00N 53°39' E 009°31'0 0.0
2018-Apr-21 00:30N 53°39' E 009°31'0 0.0
2018-Apr-21 00:00N 53°39' E 009°31'0 0.0
2018-Apr-20 23:30N 53°39' E 009°31'0 0.0
2018-Apr-20 23:00N 53°39' E 009°31'0 0.0
2018-Apr-20 22:30N 53°39' E 009°31'0 0.0
2018-Apr-20 22:00N 53°39' E 009°31'0 0.0
2018-Apr-20 21:30N 53°39' E 009°31'0 0.0
2018-Apr-20 21:00N 53°39' E 009°31'0 0.0
2018-Apr-20 20:30N 53°39' E 009°31'0 0.0
2018-Apr-20 20:00N 53°39' E 009°31'0 0.0
2018-Apr-20 19:30N 53°39' E 009°31'0 0.0
2018-Apr-20 19:00N 53°39' E 009°31'0 0.0
2018-Apr-20 18:30N 53°39' E 009°31'0 0.0
2018-Apr-20 18:00N 53°39' E 009°31'0 0.0
2018-Apr-20 17:30N 53°39' E 009°31'0 0.0
2018-Apr-20 17:00N 53°39' E 009°31'0 0.0
2018-Apr-20 16:30N 53°39' E 009°31'0 0.0
2018-Apr-20 16:00N 53°39' E 009°31'0 0.0
2018-Apr-20 15:30N 53°39' E 009°31'0 0.0
2018-Apr-20 15:00N 53°39' E 009°31'0 0.0
2018-Apr-20 14:30N 53°39' E 009°31'0 0.0
2018-Apr-20 14:00N 53°39' E 009°31'0 0.0
2018-Apr-20 13:30N 53°39' E 009°31'0 0.0
2018-Apr-20 13:00N 53°39' E 009°31'0 0.0
2018-Apr-20 12:30N 53°39' E 009°31'0 0.0
2018-Apr-20 12:00N 53°39' E 009°31'0 0.0
2018-Apr-20 11:30N 53°39' E 009°31'0 0.0
2018-Apr-20 10:57N 53°39' E 009°31'0 0.0
2018-Apr-20 10:30N 53°39' E 009°31'0 0.0
2018-Apr-20 10:00N 53°39' E 009°31'0 0.0
2018-Apr-20 09:30N 53°39' E 009°31'0 0.0
2018-Apr-20 09:00N 53°39' E 009°31'0 0.0
2018-Apr-20 08:30N 53°39' E 009°31'0 0.0
2018-Apr-20 08:00N 53°39' E 009°31'0 0.0
2018-Apr-20 07:30N 53°39' E 009°31'0 0.0
2018-Apr-20 07:00N 53°39' E 009°31'0 0.0
2018-Apr-20 06:30N 53°39' E 009°31'0 0.0
2018-Apr-20 06:00N 53°39' E 009°31'0 0.0
2018-Apr-20 05:30N 53°39' E 009°31'0 0.0
2018-Apr-20 05:00N 53°39' E 009°31'0 0.0
2018-Apr-20 04:27N 53°39' E 009°31'0 0.0
2018-Apr-20 04:00N 53°39' E 009°31'0 0.0
2018-Apr-20 03:30N 53°39' E 009°31'0 0.0
2018-Apr-20 03:00N 53°39' E 009°31'0 0.0
2018-Apr-20 02:30N 53°39' E 009°31'0 0.0
2018-Apr-20 02:00N 53°39' E 009°31'0 0.0
2018-Apr-20 01:30N 53°39' E 009°31'0 0.0
2018-Apr-20 01:00N 53°39' E 009°31'0 0.0
2018-Apr-20 00:30N 53°39' E 009°31'0 0.0
2018-Apr-20 00:00N 53°39' E 009°31'0 0.0
2018-Apr-19 23:30N 53°39' E 009°31'0 0.0
2018-Apr-19 23:00N 53°39' E 009°31'0 0.0
2018-Apr-19 22:30N 53°39' E 009°31'0 0.0
2018-Apr-19 22:00N 53°39' E 009°31'0 0.0
2018-Apr-19 21:30N 53°39' E 009°31'0 0.0
2018-Apr-19 21:00N 53°39' E 009°31'0 0.0
2018-Apr-19 20:30N 53°39' E 009°31'0 0.0
2018-Apr-19 20:00N 53°39' E 009°31'0 0.0
2018-Apr-19 19:30N 53°39' E 009°31'0 0.0
2018-Apr-19 19:00N 53°39' E 009°31'0 0.0
2018-Apr-19 18:30N 53°39' E 009°31'0 0.0
2018-Apr-19 17:57N 53°39' E 009°31'0 0.0
2018-Apr-19 17:30N 53°39' E 009°31'0 0.0
2018-Apr-19 17:00N 53°39' E 009°31'0 0.0
2018-Apr-19 16:30N 53°39' E 009°31'0 0.0
2018-Apr-19 16:00N 53°39' E 009°31'0 0.0
2018-Apr-19 15:30N 53°39' E 009°31'0 0.0
2018-Apr-19 15:00N 53°39' E 009°31'0 0.0
2018-Apr-19 14:30N 53°39' E 009°31'0 0.0
2018-Apr-19 14:00N 53°39' E 009°31'0 0.0
2018-Apr-19 13:30N 53°39' E 009°31'0 0.0
2018-Apr-19 13:00N 53°39' E 009°31'0 0.0
2018-Apr-19 12:30N 53°39' E 009°31'0 0.0
2018-Apr-19 12:00N 53°39' E 009°31'0 0.0
2018-Apr-19 11:30N 53°39' E 009°31'0 0.0
2018-Apr-19 11:00N 53°39' E 009°31'0 0.0
2018-Apr-19 10:30N 53°39' E 009°31'0 0.0
2018-Apr-19 10:00N 53°39' E 009°31'0 0.0
2018-Apr-19 09:30N 53°39' E 009°31'0 0.0
2018-Apr-19 09:00N 53°39' E 009°31'0 0.0
2018-Apr-19 08:30N 53°39' E 009°31'0 0.0
2018-Apr-19 08:00N 53°39' E 009°31'0 0.0
2018-Apr-19 07:30N 53°39' E 009°31'0 0.0
2018-Apr-19 07:00N 53°39' E 009°31'0 0.0
2018-Apr-19 06:30N 53°39' E 009°31'0 0.0
2018-Apr-19 06:00N 53°39' E 009°31'0 0.0
2018-Apr-19 05:30N 53°39' E 009°31'0 0.0
2018-Apr-19 05:00N 53°39' E 009°31'0 0.0
2018-Apr-19 04:30N 53°39' E 009°31'0 0.0
2018-Apr-19 04:00N 53°39' E 009°31'0 0.0
2018-Apr-19 03:30N 53°39' E 009°31'0 0.0
2018-Apr-19 03:00N 53°39' E 009°31'0 0.0
2018-Apr-19 02:30N 53°39' E 009°31'0 0.0
2018-Apr-19 02:00N 53°39' E 009°31'0 0.0
2018-Apr-19 01:27N 53°39' E 009°31'0 0.0
2018-Apr-19 01:00N 53°39' E 009°31'0 0.0
2018-Apr-19 00:30N 53°39' E 009°31'0 0.0
2018-Apr-19 00:00N 53°39' E 009°31'0 0.0
2018-Apr-18 23:30N 53°39' E 009°31'0 0.0
2018-Apr-18 23:00N 53°39' E 009°31'0 0.0
2018-Apr-18 22:30N 53°39' E 009°31'0 0.0
2018-Apr-18 22:00N 53°39' E 009°31'0 0.0
2018-Apr-18 21:30N 53°39' E 009°31'0 0.0
2018-Apr-18 21:00N 53°39' E 009°31'0 0.0
2018-Apr-18 20:30N 53°39' E 009°31'0 0.0
2018-Apr-18 20:00N 53°39' E 009°31'0 0.0
2018-Apr-18 19:30N 53°39' E 009°31'0 0.0
2018-Apr-18 19:00N 53°39' E 009°31'0 0.0
2018-Apr-18 18:30N 53°39' E 009°31'0 0.0
2018-Apr-18 18:00N 53°39' E 009°31'0 0.0
2018-Apr-18 17:30N 53°39' E 009°31'0 0.0
2018-Apr-18 17:00N 53°39' E 009°31'0 0.0
2018-Apr-18 16:30N 53°39' E 009°31'0 0.0
2018-Apr-18 16:00N 53°39' E 009°31'0 0.0
2018-Apr-18 15:30N 53°39' E 009°31'0 0.0
2018-Apr-18 15:00N 53°39' E 009°31'0 0.0
2018-Apr-18 14:30N 53°39' E 009°31'0 0.0
2018-Apr-18 14:00N 53°39' E 009°31'0 0.0
2018-Apr-18 13:30N 53°39' E 009°31'0 0.0
2018-Apr-18 13:00N 53°39' E 009°31'0 0.0
2018-Apr-18 12:30N 53°39' E 009°31'0 0.0
2018-Apr-18 12:00N 53°39' E 009°31'0 0.0
2018-Apr-18 11:30N 53°39' E 009°31'0 0.0
2018-Apr-18 11:00N 53°39' E 009°31'0 0.0
2018-Apr-18 10:30N 53°39' E 009°31'0 0.0
2018-Apr-18 10:00N 53°39' E 009°31'0 0.0
2018-Apr-18 09:30N 53°39' E 009°31'0 0.0
2018-Apr-18 09:00N 53°39' E 009°31'0 0.0
2018-Apr-18 08:27N 53°39' E 009°31'0 0.0
2018-Apr-18 08:00N 53°39' E 009°31'0 0.0
2018-Apr-18 07:30N 53°39' E 009°31'0 0.0
2018-Apr-18 07:00N 53°39' E 009°31'0 0.0
2018-Apr-18 06:30N 53°39' E 009°31'0 0.0
2018-Apr-18 06:00N 53°39' E 009°31'0 0.0
2018-Apr-18 05:30N 53°39' E 009°31'0 0.0
2018-Apr-18 05:00N 53°39' E 009°31'0 0.0
2018-Apr-18 04:30N 53°39' E 009°31'0 0.0
2018-Apr-18 04:00N 53°39' E 009°31'0 0.0
2018-Apr-18 03:30N 53°39' E 009°31'0 0.0
2018-Apr-18 03:00N 53°39' E 009°31'0 0.0
2018-Apr-18 02:30N 53°39' E 009°31'0 0.0
2018-Apr-18 02:00N 53°39' E 009°31'0 0.0
2018-Apr-18 01:30N 53°39' E 009°31'0 0.0
2018-Apr-18 00:57N 53°39' E 009°31'0 0.0
2018-Apr-18 00:30N 53°39' E 009°31'0 0.0
2018-Apr-18 00:00N 53°39' E 009°31'0 0.0
2018-Apr-17 23:30N 53°39' E 009°31'0 0.0
2018-Apr-17 23:00N 53°39' E 009°31'0 0.0
2018-Apr-17 22:30N 53°39' E 009°31'0 0.0
2018-Apr-17 22:00N 53°39' E 009°31'0 0.0
2018-Apr-17 21:30N 53°39' E 009°31'0 0.0
2018-Apr-17 21:00N 53°39' E 009°31'0 0.0
2018-Apr-17 20:30N 53°39' E 009°31'0 0.0
2018-Apr-17 20:00N 53°39' E 009°31'0 0.0
2018-Apr-17 19:30N 53°39' E 009°31'0 0.0
2018-Apr-17 19:00N 53°39' E 009°31'0 0.0
2018-Apr-17 18:30N 53°39' E 009°31'0 0.0
2018-Apr-17 18:00N 53°39' E 009°31'0 0.0
2018-Apr-17 17:30N 53°39' E 009°31'0 0.0
2018-Apr-17 17:00N 53°39' E 009°31'0 0.0
2018-Apr-17 16:30N 53°39' E 009°31'0 0.0
2018-Apr-17 16:00N 53°39' E 009°31'0 0.0
2018-Apr-17 15:30N 53°39' E 009°31'0 0.0
2018-Apr-17 15:00N 53°39' E 009°31'0 0.0
2018-Apr-17 14:30N 53°39' E 009°31'0 0.0
2018-Apr-17 14:00N 53°39' E 009°31'0 0.0
2018-Apr-17 13:30N 53°39' E 009°31'0 0.0
2018-Apr-17 13:00N 53°39' E 009°31'0 0.0
2018-Apr-17 12:30N 53°39' E 009°31'0 0.0
2018-Apr-17 12:00N 53°39' E 009°31'0 0.0
2018-Apr-17 11:30N 53°39' E 009°31'0 0.0
2018-Apr-17 11:00N 53°39' E 009°31'0 0.0
2018-Apr-17 10:30N 53°39' E 009°31'0 0.0
2018-Apr-17 10:00N 53°39' E 009°31'0 0.0
2018-Apr-17 09:30N 53°39' E 009°31'0 0.0
2018-Apr-17 09:00N 53°39' E 009°31'0 0.0
2018-Apr-17 08:30N 53°39' E 009°31'0 0.0
2018-Apr-17 08:00N 53°39' E 009°31'0 0.0
2018-Apr-17 07:30N 53°39' E 009°31'0 0.0
2018-Apr-17 07:00N 53°39' E 009°31'0 0.0
2018-Apr-17 06:30N 53°39' E 009°31'0 0.0
2018-Apr-17 06:00N 53°39' E 009°31'0 0.0
2018-Apr-17 05:30N 53°39' E 009°31'0 0.0
2018-Apr-17 05:00N 53°39' E 009°31'0 0.0
2018-Apr-17 04:30N 53°39' E 009°31'0 0.0
2018-Apr-17 04:00N 53°39' E 009°31'1 1.3
2018-Apr-17 03:30N 53°40' E 009°31'5 9.1
2018-Apr-17 03:00N 53°44' E 009°27'612.4
2018-Apr-17 02:30N 53°49' E 009°22'612.9
2018-Apr-17 02:00N 53°53' E 009°13'5 9.1
2018-Apr-17 01:30N 53°52' E 009°05'5 9.1
2018-Apr-17 01:00N 53°51' E 008°58'510.8
2018-Apr-17 00:31N 53°50' E 008°49'4 8.8
2018-Apr-17 00:00N 53°53' E 008°42'611.7
2018-Apr-16 23:30N 53°57' E 008°36'713.3
2018-Apr-16 23:00N 53°59' E 008°25'713.5
2018-Apr-16 22:30N 53°60' E 008°14'612.9
2018-Apr-16 22:00N 53°60' E 008°03'713.0
2018-Apr-16 21:30N 54°03' E 007°53'510.5
2018-Apr-16 21:00N 54°05' E 007°45'1 0.1
2018-Apr-16 15:37N 54°05' E 007°44'0 0.1
2018-Apr-16 15:16N 54°05' E 007°44'0 0.0
2018-Apr-16 14:55N 54°05' E 007°44'0 0.0
2018-Apr-16 14:28N 54°05' E 007°44'0 0.2
2018-Apr-16 13:58N 54°05' E 007°44'0 0.1
2018-Apr-16 10:49N 54°05' E 007°44'0 0.2
2018-Apr-16 10:13N 54°05' E 007°44'1 3.4
2018-Apr-16 09:57N 54°05' E 007°43'  
Track history (hours):
 
Tides and Currents Weather Stations Pressure Air Temp Water Temp Dewpoint Dewpoint Depression Visibility Wind Speed Wind Dir Waves Ship Positions

Artvin

Last reported at 2018-Apr-24 15:01 UTC. Time now 2018-Apr-25 12:48 UTC.
Position N 56°09' E 016°58'.

Length 229 m; draft 7 m.

Type: Cargo ship. MMSI: 215678000.

Date/timePositionNaut miles runAvg speedWind from/ knotsBaromVisibWave heightAir tempDewpointWater temp
2018-Apr-24 15:01N 56°09' E 016°58'010.3
2018-Apr-24 15:00N 56°09' E 016°58'611.1
2018-Apr-24 14:29N 56°05' E 016°49'511.0
2018-Apr-24 14:00N 56°02' E 016°42'611.1
2018-Apr-24 13:31N 55°59' E 016°34'611.0
2018-Apr-24 13:01N 55°56' E 016°26'510.8
2018-Apr-24 12:31N 55°53' E 016°17'510.8
2018-Apr-24 12:00N 55°50' E 016°09'511.0
2018-Apr-24 11:31N 55°47' E 016°00'610.9
2018-Apr-24 11:00N 55°45' E 015°52'510.8
2018-Apr-24 10:30N 55°42' E 015°44'510.7
2018-Apr-24 10:01N 55°39' E 015°36'510.8
2018-Apr-24 09:31N 55°36' E 015°28'510.6
2018-Apr-24 09:01N 55°34' E 015°19'4 8.6
2018-Apr-24 08:30N 55°32' E 015°12'4 7.4
2018-Apr-24 08:00N 55°31' E 015°06'4 7.4
2018-Apr-24 07:30N 55°29' E 015°00'4 7.5
2018-Apr-24 07:00N 55°28' E 014°54'4 8.0
2018-Apr-24 06:30N 55°26' E 014°48'510.9
2018-Apr-24 06:00N 55°23' E 014°39'611.1
2018-Apr-24 05:30N 55°19' E 014°33'510.9
2018-Apr-24 05:00N 55°15' E 014°27'510.8
2018-Apr-24 04:31N 55°11' E 014°21'510.0
2018-Apr-24 04:00N 55°10' E 014°12'2910.8
2018-Apr-24 01:21N 55°12' E 013°21'510.7
2018-Apr-24 00:55N 55°12' E 013°13'510.8
2018-Apr-24 00:30N 55°12' E 013°06'510.6
2018-Apr-24 00:01N 55°14' E 012°57'510.8
2018-Apr-23 23:30N 55°16' E 012°48'510.8
2018-Apr-23 23:00N 55°18' E 012°39'4 9.0
2018-Apr-23 22:31N 55°22' E 012°39'510.8
2018-Apr-23 22:01N 55°27' E 012°41'611.4
2018-Apr-23 21:31N 55°33' E 012°42'611.6
2018-Apr-23 21:01N 55°39' E 012°42'611.2
2018-Apr-23 20:31N 55°44' E 012°42'510.9
2018-Apr-23 20:01N 55°50' E 012°43'510.5
2018-Apr-23 19:31N 55°55' E 012°45'611.5
2018-Apr-23 19:01N 56°00' E 012°40'611.6
2018-Apr-23 18:31N 56°05' E 012°35'611.6
2018-Apr-23 18:01N 56°09' E 012°27'611.1
2018-Apr-23 17:31N 56°12' E 012°18'4710.1
2018-Apr-23 12:51N 56°56' E 011°46'411.3
2018-Apr-23 12:30N 56°59' E 011°43'611.2
2018-Apr-23 12:01N 57°04' E 011°40'510.7
2018-Apr-23 11:31N 57°09' E 011°37'510.5
2018-Apr-23 11:01N 57°14' E 011°33'510.3
2018-Apr-23 10:30N 57°19' E 011°30'510.7
2018-Apr-23 10:01N 57°24' E 011°27'510.5
2018-Apr-23 09:30N 57°29' E 011°21'612.4
2018-Apr-23 09:01N 57°33' E 011°13'714.8
2018-Apr-23 08:31N 57°38' E 011°03'713.8
2018-Apr-23 08:00N 57°43' E 010°54'5 9.8
2018-Apr-23 07:30N 57°46' E 010°47'510.0
2018-Apr-23 07:00N 57°47' E 010°38'611.1
2018-Apr-23 06:30N 57°47' E 010°28'810.9
2018-Apr-23 05:49N 57°47' E 010°13'4010.7
2018-Apr-23 02:04N 57°40' E 008°59'111.4
2018-Apr-23 02:00N 57°39' E 008°58'611.1
2018-Apr-23 01:28N 57°36' E 008°49'510.8
2018-Apr-23 00:58N 57°34' E 008°40'610.8
2018-Apr-23 00:23N 57°30' E 008°30'410.8
2018-Apr-22 23:58N 57°28' E 008°23'510.8
2018-Apr-22 23:30N 57°25' E 008°15'910.7
2018-Apr-22 22:42N 57°21' E 008°02'410.5
2018-Apr-22 22:22N 57°19' E 007°56'410.5
2018-Apr-22 22:00N 57°17' E 007°50'510.7
2018-Apr-22 21:30N 57°14' E 007°42'1011.1
2018-Apr-22 20:37N 57°09' E 007°27'210.7
2018-Apr-22 20:27N 57°08' E 007°24'810.6
2018-Apr-22 19:44N 57°04' E 007°12'11210.3
2018-Apr-22 08:51N 55°21' E 005°50'411.1
2018-Apr-22 08:30N 55°18' E 005°48'1911.0
2018-Apr-22 06:47N 54°59' E 005°43'311.1
2018-Apr-22 06:30N 54°56' E 005°43'4010.4
2018-Apr-22 02:38N 54°16' E 005°44'210.4
2018-Apr-22 02:24N 54°14' E 005°47'31 9.4
2018-Apr-21 23:06N 54°11' E 006°40'110.0
2018-Apr-21 22:57N 54°11' E 006°42'4510.6
2018-Apr-21 18:41N 54°03' E 007°58'513.9
2018-Apr-21 18:20N 54°01' E 008°06'513.6
2018-Apr-21 17:58N 54°00' E 008°14'715.4
2018-Apr-21 17:30N 53°59' E 008°26'714.2
2018-Apr-21 17:00N 53°57' E 008°37'611.9
2018-Apr-21 16:29N 53°52' E 008°44'510.2
2018-Apr-21 16:00N 53°50' E 008°51'510.2
2018-Apr-21 15:30N 53°51' E 008°60'5 9.7
2018-Apr-21 15:00N 53°53' E 009°08'3 6.4
2018-Apr-21 14:30N 53°53' E 009°13'4 8.6
2018-Apr-21 14:00N 53°51' E 009°19'5 9.9
2018-Apr-21 13:30N 53°47' E 009°24'611.6
2018-Apr-21 13:00N 53°42' E 009°30'3 5.5
2018-Apr-21 12:30N 53°39' E 009°31'0 0.1
2018-Apr-21 12:01N 53°39' E 009°31'0 0.0
2018-Apr-21 11:30N 53°39' E 009°31'0 0.0
2018-Apr-21 11:00N 53°39' E 009°31'0 0.0
2018-Apr-21 10:30N 53°39' E 009°31'0 0.0
2018-Apr-21 10:00N 53°39' E 009°31'0 0.0
2018-Apr-21 09:30N 53°39' E 009°31'0 0.0
2018-Apr-21 09:00N 53°39' E 009°31'0 0.0
2018-Apr-21 08:30N 53°39' E 009°31'0 0.0
2018-Apr-21 08:00N 53°39' E 009°31'0 0.0
2018-Apr-21 07:30N 53°39' E 009°31'0 0.0
2018-Apr-21 07:00N 53°39' E 009°31'0 0.0
2018-Apr-21 06:30N 53°39' E 009°31'0 0.0
2018-Apr-21 06:00N 53°39' E 009°31'0 0.0
2018-Apr-21 05:30N 53°39' E 009°31'0 0.0
2018-Apr-21 05:00N 53°39' E 009°31'0 0.0
2018-Apr-21 04:30N 53°39' E 009°31'0 0.0
2018-Apr-21 04:00N 53°39' E 009°31'0 0.0
2018-Apr-21 03:30N 53°39' E 009°31'0 0.0
2018-Apr-21 03:00N 53°39' E 009°31'0 0.0
2018-Apr-21 02:30N 53°39' E 009°31'0 0.0
2018-Apr-21 02:00N 53°39' E 009°31'0 0.0
2018-Apr-21 01:30N 53°39' E 009°31'0 0.0
2018-Apr-21 01:00N 53°39' E 009°31'0 0.0
2018-Apr-21 00:30N 53°39' E 009°31'0 0.0
2018-Apr-21 00:00N 53°39' E 009°31'0 0.0
2018-Apr-20 23:30N 53°39' E 009°31'0 0.0
2018-Apr-20 23:00N 53°39' E 009°31'0 0.0
2018-Apr-20 22:30N 53°39' E 009°31'0 0.0
2018-Apr-20 22:00N 53°39' E 009°31'0 0.0
2018-Apr-20 21:30N 53°39' E 009°31'0 0.0
2018-Apr-20 21:00N 53°39' E 009°31'0 0.0
2018-Apr-20 20:30N 53°39' E 009°31'0 0.0
2018-Apr-20 20:00N 53°39' E 009°31'0 0.0
2018-Apr-20 19:30N 53°39' E 009°31'0 0.0
2018-Apr-20 19:00N 53°39' E 009°31'0 0.0
2018-Apr-20 18:30N 53°39' E 009°31'0 0.0
2018-Apr-20 18:00N 53°39' E 009°31'0 0.0
2018-Apr-20 17:30N 53°39' E 009°31'0 0.0
2018-Apr-20 17:00N 53°39' E 009°31'0 0.0
2018-Apr-20 16:30N 53°39' E 009°31'0 0.0
2018-Apr-20 16:00N 53°39' E 009°31'0 0.0
2018-Apr-20 15:30N 53°39' E 009°31'0 0.0
2018-Apr-20 15:00N 53°39' E 009°31'0 0.0
2018-Apr-20 14:30N 53°39' E 009°31'0 0.0
2018-Apr-20 14:00N 53°39' E 009°31'0 0.0
2018-Apr-20 13:30N 53°39' E 009°31'0 0.0
2018-Apr-20 13:00N 53°39' E 009°31'0 0.0
2018-Apr-20 12:30N 53°39' E 009°31'0 0.0
2018-Apr-20 12:00N 53°39' E 009°31'0 0.0
2018-Apr-20 11:30N 53°39' E 009°31'0 0.0
2018-Apr-20 10:57N 53°39' E 009°31'0 0.0
2018-Apr-20 10:30N 53°39' E 009°31'0 0.0
2018-Apr-20 10:00N 53°39' E 009°31'0 0.0
2018-Apr-20 09:30N 53°39' E 009°31'0 0.0
2018-Apr-20 09:00N 53°39' E 009°31'0 0.0
2018-Apr-20 08:30N 53°39' E 009°31'0 0.0
2018-Apr-20 08:00N 53°39' E 009°31'0 0.0
2018-Apr-20 07:30N 53°39' E 009°31'0 0.0
2018-Apr-20 07:00N 53°39' E 009°31'0 0.0
2018-Apr-20 06:30N 53°39' E 009°31'0 0.0
2018-Apr-20 06:00N 53°39' E 009°31'0 0.0
2018-Apr-20 05:30N 53°39' E 009°31'0 0.0
2018-Apr-20 05:00N 53°39' E 009°31'0 0.0
2018-Apr-20 04:27N 53°39' E 009°31'0 0.0
2018-Apr-20 04:00N 53°39' E 009°31'0 0.0
2018-Apr-20 03:30N 53°39' E 009°31'0 0.0
2018-Apr-20 03:00N 53°39' E 009°31'0 0.0
2018-Apr-20 02:30N 53°39' E 009°31'0 0.0
2018-Apr-20 02:00N 53°39' E 009°31'0 0.0
2018-Apr-20 01:30N 53°39' E 009°31'0 0.0
2018-Apr-20 01:00N 53°39' E 009°31'0 0.0
2018-Apr-20 00:30N 53°39' E 009°31'0 0.0
2018-Apr-20 00:00N 53°39' E 009°31'0 0.0
2018-Apr-19 23:30N 53°39' E 009°31'0 0.0
2018-Apr-19 23:00N 53°39' E 009°31'0 0.0
2018-Apr-19 22:30N 53°39' E 009°31'0 0.0
2018-Apr-19 22:00N 53°39' E 009°31'0 0.0
2018-Apr-19 21:30N 53°39' E 009°31'0 0.0
2018-Apr-19 21:00N 53°39' E 009°31'0 0.0
2018-Apr-19 20:30N 53°39' E 009°31'0 0.0
2018-Apr-19 20:00N 53°39' E 009°31'0 0.0
2018-Apr-19 19:30N 53°39' E 009°31'0 0.0
2018-Apr-19 19:00N 53°39' E 009°31'0 0.0
2018-Apr-19 18:30N 53°39' E 009°31'0 0.0
2018-Apr-19 17:57N 53°39' E 009°31'0 0.0
2018-Apr-19 17:30N 53°39' E 009°31'0 0.0
2018-Apr-19 17:00N 53°39' E 009°31'0 0.0
2018-Apr-19 16:30N 53°39' E 009°31'0 0.0
2018-Apr-19 16:00N 53°39' E 009°31'0 0.0
2018-Apr-19 15:30N 53°39' E 009°31'0 0.0
2018-Apr-19 15:00N 53°39' E 009°31'0 0.0
2018-Apr-19 14:30N 53°39' E 009°31'0 0.0
2018-Apr-19 14:00N 53°39' E 009°31'0 0.0
2018-Apr-19 13:30N 53°39' E 009°31'0 0.0
2018-Apr-19 13:00N 53°39' E 009°31'0 0.0
2018-Apr-19 12:30N 53°39' E 009°31'0 0.0
2018-Apr-19 12:00N 53°39' E 009°31'0 0.0
2018-Apr-19 11:30N 53°39' E 009°31'0 0.0
2018-Apr-19 11:00N 53°39' E 009°31'0 0.0
2018-Apr-19 10:30N 53°39' E 009°31'0 0.0
2018-Apr-19 10:00N 53°39' E 009°31'0 0.0
2018-Apr-19 09:30N 53°39' E 009°31'0 0.0
2018-Apr-19 09:00N 53°39' E 009°31'0 0.0
2018-Apr-19 08:30N 53°39' E 009°31'0 0.0
2018-Apr-19 08:00N 53°39' E 009°31'0 0.0
2018-Apr-19 07:30N 53°39' E 009°31'0 0.0
2018-Apr-19 07:00N 53°39' E 009°31'0 0.0
2018-Apr-19 06:30N 53°39' E 009°31'0 0.0
2018-Apr-19 06:00N 53°39' E 009°31'0 0.0
2018-Apr-19 05:30N 53°39' E 009°31'0 0.0
2018-Apr-19 05:00N 53°39' E 009°31'0 0.0
2018-Apr-19 04:30N 53°39' E 009°31'0 0.0
2018-Apr-19 04:00N 53°39' E 009°31'0 0.0
2018-Apr-19 03:30N 53°39' E 009°31'0 0.0
2018-Apr-19 03:00N 53°39' E 009°31'0 0.0
2018-Apr-19 02:30N 53°39' E 009°31'0 0.0
2018-Apr-19 02:00N 53°39' E 009°31'0 0.0
2018-Apr-19 01:27N 53°39' E 009°31'0 0.0
2018-Apr-19 01:00N 53°39' E 009°31'0 0.0
2018-Apr-19 00:30N 53°39' E 009°31'0 0.0
2018-Apr-19 00:00N 53°39' E 009°31'0 0.0
2018-Apr-18 23:30N 53°39' E 009°31'0 0.0
2018-Apr-18 23:00N 53°39' E 009°31'0 0.0
2018-Apr-18 22:30N 53°39' E 009°31'0 0.0
2018-Apr-18 22:00N 53°39' E 009°31'0 0.0
2018-Apr-18 21:30N 53°39' E 009°31'0 0.0
2018-Apr-18 21:00N 53°39' E 009°31'0 0.0
2018-Apr-18 20:30N 53°39' E 009°31'0 0.0
2018-Apr-18 20:00N 53°39' E 009°31'0 0.0
2018-Apr-18 19:30N 53°39' E 009°31'0 0.0
2018-Apr-18 19:00N 53°39' E 009°31'0 0.0
2018-Apr-18 18:30N 53°39' E 009°31'0 0.0
2018-Apr-18 18:00N 53°39' E 009°31'0 0.0
2018-Apr-18 17:30N 53°39' E 009°31'0 0.0
2018-Apr-18 17:00N 53°39' E 009°31'0 0.0
2018-Apr-18 16:30N 53°39' E 009°31'0 0.0
2018-Apr-18 16:00N 53°39' E 009°31'0 0.0
2018-Apr-18 15:30N 53°39' E 009°31'0 0.0
2018-Apr-18 15:00N 53°39' E 009°31'0 0.0
2018-Apr-18 14:30N 53°39' E 009°31'0 0.0
2018-Apr-18 14:00N 53°39' E 009°31'0 0.0
2018-Apr-18 13:30N 53°39' E 009°31'0 0.0
2018-Apr-18 13:00N 53°39' E 009°31'0 0.0
2018-Apr-18 12:30N 53°39' E 009°31'0 0.0
2018-Apr-18 12:00N 53°39' E 009°31'0 0.0
2018-Apr-18 11:30N 53°39' E 009°31'0 0.0
2018-Apr-18 11:00N 53°39' E 009°31'0 0.0
2018-Apr-18 10:30N 53°39' E 009°31'0 0.0
2018-Apr-18 10:00N 53°39' E 009°31'0 0.0
2018-Apr-18 09:30N 53°39' E 009°31'0 0.0
2018-Apr-18 09:00N 53°39' E 009°31'0 0.0
2018-Apr-18 08:27N 53°39' E 009°31'0 0.0
2018-Apr-18 08:00N 53°39' E 009°31'0 0.0
2018-Apr-18 07:30N 53°39' E 009°31'0 0.0
2018-Apr-18 07:00N 53°39' E 009°31'0 0.0
2018-Apr-18 06:30N 53°39' E 009°31'0 0.0
2018-Apr-18 06:00N 53°39' E 009°31'0 0.0
2018-Apr-18 05:30N 53°39' E 009°31'0 0.0
2018-Apr-18 05:00N 53°39' E 009°31'0 0.0
2018-Apr-18 04:30N 53°39' E 009°31'0 0.0
2018-Apr-18 04:00N 53°39' E 009°31'0 0.0
2018-Apr-18 03:30N 53°39' E 009°31'0 0.0
2018-Apr-18 03:00N 53°39' E 009°31'0 0.0
2018-Apr-18 02:30N 53°39' E 009°31'0 0.0
2018-Apr-18 02:00N 53°39' E 009°31'0 0.0
2018-Apr-18 01:30N 53°39' E 009°31'0 0.0
2018-Apr-18 00:57N 53°39' E 009°31'0 0.0
2018-Apr-18 00:30N 53°39' E 009°31'0 0.0
2018-Apr-18 00:00N 53°39' E 009°31'0 0.0
2018-Apr-17 23:30N 53°39' E 009°31'0 0.0
2018-Apr-17 23:00N 53°39' E 009°31'0 0.0
2018-Apr-17 22:30N 53°39' E 009°31'0 0.0
2018-Apr-17 22:00N 53°39' E 009°31'0 0.0
2018-Apr-17 21:30N 53°39' E 009°31'0 0.0
2018-Apr-17 21:00N 53°39' E 009°31'0 0.0
2018-Apr-17 20:30N 53°39' E 009°31'0 0.0
2018-Apr-17 20:00N 53°39' E 009°31'0 0.0
2018-Apr-17 19:30N 53°39' E 009°31'0 0.0
2018-Apr-17 19:00N 53°39' E 009°31'0 0.0
2018-Apr-17 18:30N 53°39' E 009°31'0 0.0
2018-Apr-17 18:00N 53°39' E 009°31'0 0.0
2018-Apr-17 17:30N 53°39' E 009°31'0 0.0
2018-Apr-17 17:00N 53°39' E 009°31'0 0.0
2018-Apr-17 16:30N 53°39' E 009°31'0 0.0
2018-Apr-17 16:00N 53°39' E 009°31'0 0.0
2018-Apr-17 15:30N 53°39' E 009°31'0 0.0
2018-Apr-17 15:00N 53°39' E 009°31'0 0.0
2018-Apr-17 14:30N 53°39' E 009°31'0 0.0
2018-Apr-17 14:00N 53°39' E 009°31'0 0.0
2018-Apr-17 13:30N 53°39' E 009°31'0 0.0
2018-Apr-17 13:00N 53°39' E 009°31'0 0.0
2018-Apr-17 12:30N 53°39' E 009°31'0 0.0
2018-Apr-17 12:00N 53°39' E 009°31'0 0.0
2018-Apr-17 11:30N 53°39' E 009°31'0 0.0
2018-Apr-17 11:00N 53°39' E 009°31'0 0.0
2018-Apr-17 10:30N 53°39' E 009°31'0 0.0
2018-Apr-17 10:00N 53°39' E 009°31'0 0.0
2018-Apr-17 09:30N 53°39' E 009°31'0 0.0
2018-Apr-17 09:00N 53°39' E 009°31'0 0.0
2018-Apr-17 08:30N 53°39' E 009°31'0 0.0
2018-Apr-17 08:00N 53°39' E 009°31'0 0.0
2018-Apr-17 07:30N 53°39' E 009°31'0 0.0
2018-Apr-17 07:00N 53°39' E 009°31'0 0.0
2018-Apr-17 06:30N 53°39' E 009°31'0 0.0
2018-Apr-17 06:00N 53°39' E 009°31'0 0.0
2018-Apr-17 05:30N 53°39' E 009°31'0 0.0
2018-Apr-17 05:00N 53°39' E 009°31'0 0.0
2018-Apr-17 04:30N 53°39' E 009°31'0 0.0
2018-Apr-17 04:00N 53°39' E 009°31'1 1.3
2018-Apr-17 03:30N 53°40' E 009°31'5 9.1
2018-Apr-17 03:00N 53°44' E 009°27'612.4
2018-Apr-17 02:30N 53°49' E 009°22'612.9
2018-Apr-17 02:00N 53°53' E 009°13'5 9.1
2018-Apr-17 01:30N 53°52' E 009°05'5 9.1
2018-Apr-17 01:00N 53°51' E 008°58'510.8
2018-Apr-17 00:31N 53°50' E 008°49'4 8.8
2018-Apr-17 00:00N 53°53' E 008°42'611.7
2018-Apr-16 23:30N 53°57' E 008°36'713.3
2018-Apr-16 23:00N 53°59' E 008°25'713.5
2018-Apr-16 22:30N 53°60' E 008°14'612.9
2018-Apr-16 22:00N 53°60' E 008°03'713.0
2018-Apr-16 21:30N 54°03' E 007°53'510.5
2018-Apr-16 21:00N 54°05' E 007°45'1 0.1
2018-Apr-16 15:37N 54°05' E 007°44'0 0.1
2018-Apr-16 15:16N 54°05' E 007°44'0 0.0
2018-Apr-16 14:55N 54°05' E 007°44'0 0.0
2018-Apr-16 14:28N 54°05' E 007°44'0 0.2
2018-Apr-16 13:58N 54°05' E 007°44'0 0.1
2018-Apr-16 10:49N 54°05' E 007°44'0 0.2
2018-Apr-16 10:13N 54°05' E 007°44'1 3.4
2018-Apr-16 09:57N 54°05' E 007°43'  

Dump ship's entire track history